Kezdőlap
METAR-TAF:

METAR-TAF

Repülőterek :

Toliara, Madagaszkár

földrajzi szélesség: 23-23S, földrajzi hosszúság: 043-44E, magasság: 8 m

METAR: hiányzik

Idő: 19:04 (16:04 UTC)

Előrejelzés

A jelentés 5 órával és 4 perccel ezelõtt készült, 11:00 UTC
Az előrejelzés 29-én 12 óra UTC és 30-én 12 óra UTC között érvényes
Délkeleti szél 15 kt
Látótávolság 10 km, vagy több
Kevés felhő 2300 lábon

TAF: FMST 291100Z 2912/3012 14015KT 9999 FEW023

Meteorológiai megfigyelések és előrejelzések több, mint 4000 repülőtéren (METAR és TAF jelentéseket).

A térképen piros és sárga pontok jelzik az elérhető meteorológiai állomásokat.

Mozgassa az egeret a pont fölött, hogy megjelenjen az állomás neve.

Azután kattintson az időjárási megfigyelések és előrejelzések megtekintéséhez.

A térkép megváltoztatása: kattintson a fekete keresztel jelölt zöld gombra ráközelítéshez, a vonallal jelölt zöld gombra távolításhoz, vagy a zöld nyilakra a szomszédos térképek eléréséhez.


METAR-TAF: